Time;durP1;ratioP1;P1;durP2;ratioP2;P2;SDS_P1;SDS_P2;PMS_P1;PMS_P2;Temp;Humidity;BMP_temperature;BMP_pressure;BME280_temperature;BME280_humidity;BME280_pressure;Samples;Min_cycle;Max_cycle;Signal;HPM_P1;HPM_P2
2023/04/23 00:00:10;;;;;;;6.53;5.07;;;11.30;99.90;;;;;;5094931;28;20261;-74
2023/04/23 00:02:37;;;;;;;5.47;4.80;;;11.30;99.90;;;;;;5094006;28;20614;-75
2023/04/23 00:05:05;;;;;;;4.97;4.37;;;11.30;99.90;;;;;;5093205;28;20210;-75
2023/04/23 00:07:34;;;;;;;5.50;4.43;;;11.30;99.90;;;;;;5093015;28;20176;-75
2023/04/23 00:10:04;;;;;;;5.57;5.00;;;11.30;99.90;;;;;;5092980;28;20172;-75
2023/04/23 00:12:31;;;;;;;5.50;5.00;;;11.20;99.90;;;;;;5092550;28;20163;-76
2023/04/23 00:14:57;;;;;;;5.17;4.70;;;11.10;99.90;;;;;;5092726;28;20179;-75
2023/04/23 00:17:23;;;;;;;8.63;4.87;;;11.00;99.90;;;;;;5092770;28;20200;-74
2023/04/23 00:19:50;;;;;;;4.73;4.33;;;11.00;99.90;;;;;;5092298;28;20216;-76
2023/04/23 00:22:16;;;;;;;6.53;4.90;;;11.00;99.90;;;;;;5092522;28;20166;-74
2023/04/23 00:24:42;;;;;;;5.83;4.80;;;11.00;99.90;;;;;;5092731;28;20695;-77
2023/04/23 00:27:08;;;;;;;5.73;4.70;;;11.00;99.90;;;;;;5097129;28;20273;-75
2023/04/23 00:29:34;;;;;;;6.33;5.17;;;11.10;99.90;;;;;;5094160;28;20178;-75
2023/04/23 00:32:00;;;;;;;8.47;5.03;;;11.10;99.90;;;;;;5093102;28;20171;-75
2023/04/23 00:34:27;;;;;;;5.23;4.73;;;11.10;99.90;;;;;;5092705;28;20201;-75
2023/04/23 00:36:53;;;;;;;6.27;4.60;;;11.10;99.90;;;;;;5092422;28;20201;-75
2023/04/23 00:39:19;;;;;;;5.03;4.53;;;11.10;99.90;;;;;;5073876;28;20190;-77
2023/04/23 00:41:45;;;;;;;5.43;4.93;;;11.10;99.90;;;;;;5092395;28;20179;-76
2023/04/23 00:44:12;;;;;;;6.37;5.07;;;11.00;99.90;;;;;;5092514;28;20190;-75
2023/04/23 00:46:38;;;;;;;6.10;5.03;;;11.00;99.90;;;;;;5092194;28;20222;-73
2023/04/23 00:49:03;;;;;;;7.23;4.80;;;11.10;99.90;;;;;;5092046;28;20265;-75
2023/04/23 00:51:30;;;;;;;5.60;4.57;;;11.00;99.90;;;;;;5092019;28;20253;-75
2023/04/23 00:53:57;;;;;;;6.23;4.90;;;11.00;99.90;;;;;;5092024;28;20175;-74
2023/04/23 00:56:24;;;;;;;6.30;4.47;;;11.00;99.90;;;;;;5092381;28;20180;-74
2023/04/23 00:58:53;;;;;;;5.40;4.90;;;10.90;99.90;;;;;;5091984;28;20645;-74
2023/04/23 01:01:23;;;;;;;6.33;4.80;;;10.80;99.90;;;;;;5092281;28;20186;-75
2023/04/23 01:03:51;;;;;;;6.00;4.53;;;10.80;99.90;;;;;;5074001;28;20179;-74
2023/04/23 01:06:17;;;;;;;5.10;4.60;;;10.80;99.90;;;;;;5092126;28;20683;-76
2023/04/23 01:08:44;;;;;;;5.93;4.80;;;10.80;99.90;;;;;;5091815;28;20181;-76
2023/04/23 01:11:13;;;;;;;6.27;4.77;;;10.70;99.90;;;;;;5092140;28;20174;-75
2023/04/23 01:13:40;;;;;;;7.17;5.20;;;10.70;99.90;;;;;;5093413;28;20166;-74
2023/04/23 01:16:07;;;;;;;5.70;4.23;;;10.70;99.90;;;;;;5092303;28;20177;-76
2023/04/23 01:18:33;;;;;;;5.30;4.87;;;10.70;99.90;;;;;;5092194;28;20185;-74
2023/04/23 01:21:00;;;;;;;7.87;4.57;;;10.70;99.90;;;;;;5092861;28;20172;-75
2023/04/23 01:23:26;;;;;;;5.13;4.60;;;12.30;99.90;;;;;;5093394;28;20205;-75
2023/04/23 01:25:53;;;;;;;5.53;4.70;;;10.50;99.90;;;;;;5091879;28;20286;-75
2023/04/23 01:28:20;;;;;;;5.50;5.00;;;10.50;99.90;;;;;;5092228;28;20177;-75
2023/04/23 01:30:49;;;;;;;4.90;4.50;;;10.60;99.90;;;;;;5091838;28;20177;-75
2023/04/23 01:33:15;;;;;;;5.70;4.60;;;10.60;99.90;;;;;;5095221;28;20251;-76
2023/04/23 01:35:42;;;;;;;5.50;4.97;;;10.60;99.90;;;;;;5077494;28;20181;-73
2023/04/23 01:38:10;;;;;;;5.13;4.73;;;10.60;99.90;;;;;;5095784;28;20167;-76
2023/04/23 01:40:37;;;;;;;4.87;4.40;;;10.50;99.90;;;;;;5095824;28;20186;-75
2023/04/23 01:43:04;;;;;;;5.80;4.90;;;10.50;99.90;;;;;;5077098;28;20186;-75
2023/04/23 01:45:30;;;;;;;8.43;4.70;;;10.50;99.90;;;;;;5095497;28;20229;-75
2023/04/23 01:47:56;;;;;;;5.60;4.87;;;10.50;99.90;;;;;;5077411;28;20629;-75
2023/04/23 01:50:23;;;;;;;4.73;4.33;;;10.50;99.90;;;;;;5095717;28;20178;-75
2023/04/23 01:52:49;;;;;;;4.53;4.17;;;10.50;99.90;;;;;;5079147;28;20190;-76
2023/04/23 01:55:17;;;;;;;6.97;5.00;;;10.40;99.90;;;;;;5099837;28;20176;-75
2023/04/23 01:57:44;;;;;;;5.13;4.63;;;10.40;99.90;;;;;;5095801;28;20186;-76
2023/04/23 02:00:14;;;;;;;5.43;4.40;;;10.40;99.90;;;;;;5077324;28;20180;-76
2023/04/23 02:02:41;;;;;;;5.10;4.60;;;10.30;99.90;;;;;;5077090;28;20225;-75
2023/04/23 02:05:17;;;;;;;4.40;4.10;;;10.40;99.90;;;;;;5095621;28;20203;-74
2023/04/23 02:07:44;;;;;;;4.43;4.03;;;10.20;99.90;;;;;;5095279;28;20171;-75
2023/04/23 02:10:10;;;;;;;5.17;4.67;;;10.20;99.90;;;;;;5094886;28;20171;-75
2023/04/23 02:12:36;;;;;;;5.17;4.67;;;10.20;99.90;;;;;;5076856;28;20922;-75
2023/04/23 02:15:04;;;;;;;5.53;4.47;;;10.20;99.90;;;;;;5094909;28;20210;-75
2023/04/23 02:17:29;;;;;;;7.10;4.80;;;10.30;99.90;;;;;;5094828;28;20182;-75
2023/04/23 02:19:55;;;;;;;4.87;4.47;;;10.30;99.90;;;;;;5094646;28;20172;-75
2023/04/23 02:22:23;;;;;;;4.80;4.40;;;10.30;99.90;;;;;;5096446;28;20175;-76
2023/04/23 02:24:50;;;;;;;4.97;4.40;;;10.30;99.90;;;;;;5097028;28;20207;-75
2023/04/23 02:27:16;;;;;;;5.03;4.60;;;10.30;99.90;;;;;;5094888;28;20183;-75
2023/04/23 02:29:42;;;;;;;4.80;4.40;;;10.20;99.90;;;;;;5094519;28;20176;-74
2023/04/23 02:32:08;;;;;;;6.20;5.20;;;10.20;99.90;;;;;;5094595;28;20186;-76
2023/04/23 02:34:33;;;;;;;6.10;4.70;;;10.30;99.90;;;;;;5094310;28;20173;-74
2023/04/23 02:36:59;;;;;;;5.37;4.73;;;10.30;99.90;;;;;;5094442;28;20627;-74
2023/04/23 02:39:25;;;;;;;5.97;4.93;;;10.30;99.90;;;;;;5094429;28;20252;-76
2023/04/23 02:41:50;;;;;;;6.73;4.77;;;10.30;99.90;;;;;;5076755;28;20179;-76
2023/04/23 02:44:16;;;;;;;10.23;5.03;;;10.30;99.90;;;;;;5076071;28;20271;-75
2023/04/23 02:46:42;;;;;;;6.13;4.70;;;10.30;99.90;;;;;;5094415;28;20302;-75
2023/04/23 02:49:08;;;;;;;4.73;4.43;;;10.20;99.90;;;;;;5094052;28;20184;-75
2023/04/23 02:51:33;;;;;;;6.93;5.50;;;10.20;99.90;;;;;;5094195;28;20172;-74
2023/04/23 02:53:59;;;;;;;4.97;4.50;;;10.20;99.90;;;;;;5093893;28;20238;-75
2023/04/23 02:56:25;;;;;;;5.17;4.67;;;10.30;99.90;;;;;;5077466;28;20269;-75
2023/04/23 02:58:51;;;;;;;5.43;4.83;;;10.30;99.90;;;;;;5075815;28;20186;-74
2023/04/23 03:01:16;;;;;;;5.87;5.37;;;10.30;99.90;;;;;;5093859;28;20186;-76
2023/04/23 03:03:42;;;;;;;5.60;5.03;;;10.30;99.90;;;;;;5093732;28;20175;-75
2023/04/23 03:06:08;;;;;;;5.80;4.77;;;10.20;99.90;;;;;;5075725;28;20303;-74
2023/04/23 03:08:34;;;;;;;5.40;4.90;;;10.10;99.90;;;;;;5093725;28;20189;-75
2023/04/23 03:11:00;;;;;;;6.07;4.97;;;10.00;99.90;;;;;;5093814;28;20213;-75
2023/04/23 03:13:25;;;;;;;5.43;4.93;;;10.10;99.90;;;;;;5093769;28;20180;-76
2023/04/23 03:15:52;;;;;;;5.93;4.80;;;10.10;99.90;;;;;;5093598;28;20630;-74
2023/04/23 03:18:19;;;;;;;5.07;4.57;;;10.10;99.90;;;;;;5074905;28;20680;-75
2023/04/23 03:20:47;;;;;;;5.20;4.63;;;10.10;99.90;;;;;;5093424;28;20175;-77
2023/04/23 03:23:13;;;;;;;5.53;4.57;;;10.10;99.90;;;;;;5093584;28;20178;-74
2023/04/23 03:25:39;;;;;;;5.43;4.93;;;10.00;99.90;;;;;;5093721;28;20216;-74
2023/04/23 03:28:05;;;;;;;5.37;4.70;;;10.00;99.90;;;;;;5075252;28;20577;-74
2023/04/23 03:30:31;;;;;;;5.40;4.90;;;10.00;99.90;;;;;;5093656;28;20256;-75
2023/04/23 03:32:57;;;;;;;5.13;4.67;;;10.00;99.90;;;;;;5075140;28;20631;-75
2023/04/23 03:35:23;;;;;;;6.13;4.90;;;9.90;99.90;;;;;;5093352;28;20172;-75
2023/04/23 03:37:49;;;;;;;7.57;4.90;;;9.90;99.90;;;;;;5093655;28;20214;-74
2023/04/23 03:40:15;;;;;;;4.67;4.37;;;9.90;99.90;;;;;;5093185;28;20260;-74
2023/04/23 03:42:41;;;;;;;5.23;4.70;;;9.90;99.90;;;;;;5093221;28;20189;-74
2023/04/23 03:45:07;;;;;;;5.37;4.87;;;9.80;99.90;;;;;;5092558;28;20231;-75
2023/04/23 03:47:33;;;;;;;7.40;5.07;;;9.80;99.90;;;;;;5093085;28;20170;-75
2023/04/23 03:49:58;;;;;;;5.43;4.63;;;9.70;99.90;;;;;;5092889;28;20198;-75
2023/04/23 03:52:25;;;;;;;7.37;5.23;;;9.60;99.90;;;;;;5093100;28;20186;-75
2023/04/23 03:54:51;;;;;;;5.20;4.70;;;9.60;99.90;;;;;;5095111;28;20173;-75
2023/04/23 03:57:16;;;;;;;5.87;4.70;;;9.60;99.90;;;;;;5093424;28;20163;-75
2023/04/23 03:59:42;;;;;;;5.27;4.53;;;9.70;99.90;;;;;;5092874;28;20561;-75
2023/04/23 04:02:08;;;;;;;6.20;5.20;;;9.70;99.90;;;;;;5093802;28;20191;-76
2023/04/23 04:04:33;;;;;;;5.87;4.77;;;9.50;99.90;;;;;;5075031;28;20181;-76
2023/04/23 04:06:59;;;;;;;6.50;5.07;;;9.50;99.90;;;;;;5092793;28;20188;-75
2023/04/23 04:09:26;;;;;;;5.53;5.03;;;9.40;99.90;;;;;;5092624;28;20181;-74
2023/04/23 04:11:55;;;;;;;6.07;5.47;;;9.40;99.90;;;;;;5092809;28;20267;-76
2023/04/23 04:14:21;;;;;;;5.40;4.90;;;9.60;99.90;;;;;;5092625;28;20567;-76
2023/04/23 04:16:47;;;;;;;7.53;4.97;;;9.50;99.90;;;;;;5092453;28;20170;-74
2023/04/23 04:19:13;;;;;;;4.87;4.43;;;9.50;99.90;;;;;;5092643;28;20691;-75
2023/04/23 04:21:39;;;;;;;5.07;4.57;;;9.50;99.90;;;;;;5095357;28;20177;-76
2023/04/23 04:24:05;;;;;;;7.33;4.87;;;9.50;99.90;;;;;;5075136;28;20582;-76
2023/04/23 04:26:31;;;;;;;5.37;4.90;;;9.50;99.90;;;;;;5092551;28;20570;-74
2023/04/23 04:29:03;;;;;;;5.33;4.83;;;9.60;99.90;;;;;;5092265;28;20661;-74
2023/04/23 04:31:29;;;;;;;5.07;4.57;;;9.60;99.90;;;;;;5092551;28;20186;-75
2023/04/23 04:33:56;;;;;;;5.47;4.97;;;9.60;99.90;;;;;;5092590;28;20204;-77
2023/04/23 04:36:24;;;;;;;4.90;4.50;;;9.60;99.90;;;;;;5092191;28;20530;-77
2023/04/23 04:38:54;;;;;;;5.23;4.83;;;9.60;99.90;;;;;;5074156;28;20220;-75
2023/04/23 04:41:21;;;;;;;5.50;5.00;;;9.70;99.90;;;;;;5092818;28;20645;-75
2023/04/23 04:43:47;;;;;;;7.63;5.30;;;9.70;99.90;;;;;;5092490;28;20184;-76
2023/04/23 04:46:14;;;;;;;6.17;5.57;;;9.70;99.90;;;;;;5091959;28;20238;-75
2023/04/23 04:48:40;;;;;;;4.87;4.37;;;9.70;99.90;;;;;;5091991;28;20176;-73
2023/04/23 04:51:06;;;;;;;7.33;5.17;;;9.80;99.90;;;;;;5074034;28;20185;-75
2023/04/23 04:53:32;;;;;;;5.57;5.07;;;9.90;99.90;;;;;;5092703;28;20168;-74
2023/04/23 04:55:58;;;;;;;6.13;5.20;;;10.00;99.90;;;;;;5092068;28;20173;-75
2023/04/23 04:58:24;;;;;;;6.07;5.30;;;10.10;99.90;;;;;;5091978;28;20276;-74
2023/04/23 05:00:50;;;;;;;6.67;5.20;;;10.10;99.90;;;;;;5092363;28;20692;-75
2023/04/23 05:03:18;;;;;;;6.57;4.70;;;10.20;99.90;;;;;;5092170;28;20660;-74
2023/04/23 05:05:44;;;;;;;5.37;4.87;;;10.30;99.90;;;;;;5091863;28;20320;-75
2023/04/23 05:08:10;;;;;;;4.97;4.43;;;10.40;99.90;;;;;;5095604;28;20183;-74
2023/04/23 05:10:36;;;;;;;6.10;4.83;;;10.50;99.90;;;;;;5078106;28;20184;-75
2023/04/23 05:13:01;;;;;;;5.47;4.63;;;10.50;99.90;;;;;;5096227;28;20535;-76
2023/04/23 05:15:27;;;;;;;5.83;4.70;;;10.60;99.90;;;;;;5095964;28;20572;-75
2023/04/23 05:17:53;;;;;;;5.50;4.47;;;10.60;99.90;;;;;;5095854;28;20179;-74
2023/04/23 05:20:19;;;;;;;5.97;4.67;;;10.60;99.90;;;;;;5077583;28;20671;-75
2023/04/23 05:22:45;;;;;;;4.87;4.47;;;10.70;99.90;;;;;;5096262;28;20642;-76
2023/04/23 05:25:11;;;;;;;5.07;4.60;;;10.70;99.90;;;;;;5096207;28;20251;-74
2023/04/23 05:27:38;;;;;;;8.40;4.73;;;10.70;99.90;;;;;;5095826;28;20237;-74
2023/04/23 05:30:06;;;;;;;6.20;4.63;;;10.80;99.90;;;;;;5077435;28;20216;-76
2023/04/23 05:32:33;;;;;;;7.40;4.90;;;10.80;99.90;;;;;;5095716;28;20272;-75
2023/04/23 05:34:59;;;;;;;6.30;4.50;;;10.80;99.90;;;;;;5095842;28;20181;-75
2023/04/23 05:37:25;;;;;;;4.77;4.37;;;10.80;99.90;;;;;;5095336;28;20685;-76
2023/04/23 05:39:51;;;;;;;5.37;4.20;;;10.90;99.90;;;;;;5095510;28;20174;-76
2023/04/23 05:42:17;;;;;;;5.00;4.60;;;11.00;99.90;;;;;;5095653;28;20258;-75
2023/04/23 05:44:43;;;;;;;5.27;4.77;;;11.00;99.90;;;;;;5095354;28;20223;-74
2023/04/23 05:47:10;;;;;;;5.17;4.77;;;11.00;99.90;;;;;;5095248;28;20159;-75
2023/04/23 05:49:36;;;;;;;4.97;4.57;;;11.10;99.90;;;;;;5095751;28;20227;-75
2023/04/23 05:52:02;;;;;;;6.97;5.00;;;11.30;99.90;;;;;;5098827;28;20198;-75
2023/04/23 05:54:28;;;;;;;5.60;5.00;;;11.30;99.90;;;;;;5096865;28;20572;-76
2023/04/23 05:56:54;;;;;;;5.37;4.87;;;11.30;99.90;;;;;;5095338;28;20236;-75
2023/04/23 05:59:20;;;;;;;9.40;5.90;;;11.30;99.90;;;;;;5094923;28;20178;-75
2023/04/23 06:01:47;;;;;;;5.80;5.23;;;11.40;99.90;;;;;;5095469;28;20170;-77
2023/04/23 06:04:14;;;;;;;9.83;4.90;;;11.50;99.90;;;;;;5100172;28;20269;-76
2023/04/23 06:06:39;;;;;;;6.67;5.50;;;11.60;99.90;;;;;;5096950;28;20257;-76
2023/04/23 06:09:05;;;;;;;11.23;6.97;;;11.60;99.90;;;;;;5097196;28;20179;-75
2023/04/23 06:11:31;;;;;;;5.53;5.03;;;11.70;99.90;;;;;;5115189;28;20649;-75
2023/04/23 06:14:01;;;;;;;8.90;5.20;;;11.90;99.90;;;;;;5115467;28;20182;-77
2023/04/23 06:16:27;;;;;;;6.80;5.03;;;12.10;99.90;;;;;;5115741;28;20174;-76
2023/04/23 06:18:55;;;;;;;6.97;5.47;;;12.20;99.90;;;;;;5120447;28;20253;-76
2023/04/23 06:21:24;;;;;;;5.70;5.20;;;12.30;99.90;;;;;;5099823;28;20217;-74
2023/04/23 06:23:49;;;;;;;5.93;5.33;;;12.40;99.90;;;;;;5117239;28;20166;-73
2023/04/23 06:26:16;;;;;;;9.23;5.03;;;12.50;99.90;;;;;;5116780;28;20646;-76
2023/04/23 06:28:44;;;;;;;5.67;5.10;;;12.70;99.90;;;;;;5115657;28;20611;-75
2023/04/23 06:31:10;;;;;;;6.23;5.63;;;12.80;99.90;;;;;;5115101;28;20701;-76
2023/04/23 06:33:36;;;;;;;5.83;5.40;;;12.90;99.90;;;;;;5116176;28;20669;-76
2023/04/23 06:36:07;;;;;;;8.13;5.40;;;13.00;99.90;;;;;;5115204;28;20202;-75
2023/04/23 06:38:32;;;;;;;5.13;4.63;;;13.20;99.90;;;;;;5114700;28;20173;-75
2023/04/23 06:40:58;;;;;;;6.43;4.73;;;13.40;99.90;;;;;;5114885;28;20177;-74
2023/04/23 06:43:24;;;;;;;5.57;5.07;;;13.50;99.90;;;;;;5115900;28;20185;-76
2023/04/23 06:45:50;;;;;;;5.30;4.83;;;13.70;99.90;;;;;;5095008;28;20242;-75
2023/04/23 06:48:17;;;;;;;5.67;5.03;;;13.90;99.90;;;;;;5094358;28;20167;-75
2023/04/23 06:50:43;;;;;;;5.30;4.60;;;14.00;99.90;;;;;;5095164;28;20174;-75
2023/04/23 06:53:09;;;;;;;5.13;4.70;;;14.10;99.90;;;;;;5094453;28;20695;-75
2023/04/23 06:55:34;;;;;;;5.07;4.40;;;14.10;99.90;;;;;;5094251;28;20174;-75
2023/04/23 06:58:00;;;;;;;5.30;4.83;;;14.10;99.90;;;;;;5093953;28;20167;-75
2023/04/23 07:00:26;;;;;;;4.47;4.07;;;14.10;99.90;;;;;;5093948;28;20175;-75
2023/04/23 07:02:52;;;;;;;5.87;5.37;;;14.10;99.90;;;;;;5094104;28;20259;-76
2023/04/23 07:05:18;;;;;;;5.47;4.97;;;14.20;99.90;;;;;;5094044;28;20201;-76
2023/04/23 07:07:44;;;;;;;6.97;6.27;;;14.30;99.90;;;;;;5075471;28;20180;-75
2023/04/23 07:10:11;;;;;;;6.23;5.63;;;14.50;99.90;;;;;;5075515;28;20183;-75
2023/04/23 07:12:38;;;;;;;7.53;4.97;;;14.50;99.90;;;;;;5075897;28;20219;-75
2023/04/23 07:15:05;;;;;;;6.07;5.57;;;14.60;99.90;;;;;;5093851;28;20171;-76
2023/04/23 07:17:30;;;;;;;6.10;5.50;;;14.60;99.90;;;;;;5093752;28;20538;-75
2023/04/23 07:19:56;;;;;;;5.43;5.00;;;14.70;99.90;;;;;;5093416;28;20194;-74
2023/04/23 07:22:24;;;;;;;6.57;5.37;;;14.70;99.90;;;;;;5093876;28;20200;-74
2023/04/23 07:24:50;;;;;;;5.53;4.60;;;14.90;99.90;;;;;;5075390;28;20178;-76
2023/04/23 07:27:16;;;;;;;6.20;5.60;;;15.00;99.90;;;;;;5093556;28;20635;-75
2023/04/23 07:29:41;;;;;;;6.53;5.77;;;15.00;99.90;;;;;;5092308;28;20175;-77
2023/04/23 07:32:07;;;;;;;8.53;6.30;;;15.20;99.90;;;;;;5093232;28;20176;-76
2023/04/23 07:34:35;;;;;;;6.67;5.20;;;15.20;99.90;;;;;;5075200;28;20198;-76
2023/04/23 07:37:01;;;;;;;6.17;5.57;;;15.30;99.90;;;;;;5074843;28;20181;-77
2023/04/23 07:39:27;;;;;;;5.00;4.47;;;15.30;99.90;;;;;;5092992;28;20166;-74
2023/04/23 07:41:52;;;;;;;6.40;5.80;;;15.50;99.90;;;;;;5093360;28;20529;-75
2023/04/23 07:44:19;;;;;;;6.40;5.23;;;15.60;99.90;;;;;;5093195;28;20179;-75
2023/04/23 07:46:44;;;;;;;5.33;4.87;;;15.60;99.90;;;;;;5074827;28;20240;-74
2023/04/23 07:49:12;;;;;;;6.30;5.67;;;15.60;99.80;;;;;;5092904;28;20249;-76
2023/04/23 07:51:37;;;;;;;6.30;5.00;;;15.70;99.70;;;;;;5093130;28;20170;-76
2023/04/23 07:54:03;;;;;;;6.60;5.40;;;15.70;99.90;;;;;;5093140;28;20227;-76
2023/04/23 07:56:31;;;;;;;5.77;5.00;;;15.70;99.90;;;;;;5092975;28;20265;-75
2023/04/23 07:58:57;;;;;;;5.80;5.30;;;15.80;99.80;;;;;;5092602;28;20162;-75
2023/04/23 08:01:23;;;;;;;6.53;5.10;;;15.90;99.90;;;;;;5092784;28;20172;-77
2023/04/23 08:03:49;;;;;;;7.20;5.43;;;15.90;99.90;;;;;;5089216;28;20277;-75
2023/04/23 08:06:15;;;;;;;5.60;5.03;;;16.00;99.90;;;;;;5089719;28;20289;-76
2023/04/23 08:08:41;;;;;;;5.93;5.37;;;16.00;99.90;;;;;;5094813;28;20174;-76
2023/04/23 08:11:07;;;;;;;6.87;5.10;;;16.10;99.90;;;;;;5092734;28;20217;-74
2023/04/23 08:13:33;;;;;;;5.23;4.83;;;16.20;99.90;;;;;;5074457;28;20229;-74
2023/04/23 08:15:58;;;;;;;7.20;5.80;;;16.30;99.90;;;;;;5092698;28;20181;-75
2023/04/23 08:18:24;;;;;;;6.00;5.50;;;16.50;99.90;;;;;;5093246;28;20193;-75
2023/04/23 08:20:50;;;;;;;5.73;5.23;;;16.50;99.90;;;;;;5093626;28;20257;-74
2023/04/23 08:23:16;;;;;;;5.60;5.10;;;16.70;99.90;;;;;;5092559;28;20174;-77
2023/04/23 08:25:42;;;;;;;5.03;4.50;;;16.90;99.60;;;;;;5092380;28;20341;-76
2023/04/23 08:28:11;;;;;;;8.03;5.33;;;16.90;99.60;;;;;;5092988;28;20257;-74
2023/04/23 08:30:37;;;;;;;5.73;5.13;;;17.00;99.80;;;;;;5092961;28;20177;-75
2023/04/23 08:33:03;;;;;;;4.60;4.30;;;17.20;99.90;;;;;;5092454;28;20619;-75
2023/04/23 08:35:29;;;;;;;8.77;7.30;;;17.30;99.90;;;;;;5091564;28;20226;-75
2023/04/23 08:37:55;;;;;;;5.70;5.30;;;17.50;99.90;;;;;;5092322;28;20174;-76
2023/04/23 08:40:20;;;;;;;6.00;5.40;;;17.60;99.00;;;;;;5091732;28;20612;-74
2023/04/23 08:42:56;;;;;;;5.37;4.90;;;17.70;98.80;;;;;;5092156;28;20596;-76
2023/04/23 08:45:22;;;;;;;5.60;5.07;;;17.70;98.40;;;;;;5091917;28;20243;-77
2023/04/23 08:47:48;;;;;;;5.90;5.40;;;17.80;97.90;;;;;;5092045;28;20213;-76
2023/04/23 08:50:19;;;;;;;8.77;6.37;;;17.70;97.90;;;;;;5091805;28;20213;-75
2023/04/23 08:52:56;;;;;;;6.60;5.67;;;17.70;98.20;;;;;;5092168;28;20166;-77
2023/04/23 08:55:23;;;;;;;6.00;5.10;;;17.70;98.60;;;;;;5092101;28;20174;-77
2023/04/23 08:57:49;;;;;;;5.00;4.60;;;17.80;98.20;;;;;;5092036;28;20166;-78
2023/04/23 09:00:17;;;;;;;5.20;4.70;;;17.90;97.70;;;;;;5091688;28;20198;-76
2023/04/23 09:02:47;;;;;;;5.37;4.87;;;18.00;97.70;;;;;;5092253;28;20198;-76
2023/04/23 09:05:13;;;;;;;4.80;4.50;;;18.00;98.20;;;;;;5092328;28;20194;-76
2023/04/23 09:07:40;;;;;;;4.80;4.40;;;18.10;98.50;;;;;;5092098;28;20178;-76
2023/04/23 09:10:07;;;;;;;4.80;4.40;;;18.10;98.00;;;;;;5091600;28;20163;-76
2023/04/23 09:12:38;;;;;;;7.03;6.33;;;18.20;98.00;;;;;;5092083;28;20204;-76
2023/04/23 09:15:11;;;;;;;5.17;4.70;;;18.30;98.10;;;;;;5092162;28;20171;-74
2023/04/23 09:17:48;;;;;;;4.90;4.50;;;18.40;98.00;;;;;;5073955;28;20809;-75
2023/04/23 09:20:14;;;;;;;5.00;4.60;;;18.50;98.00;;;;;;5091975;28;20211;-74
2023/04/23 09:22:46;;;;;;;14.50;5.27;;;18.60;97.40;;;;;;5091996;28;20175;-75
2023/04/23 09:25:17;;;;;;;5.83;4.67;;;18.70;97.50;;;;;;5092777;28;20290;-76
2023/04/23 09:27:44;;;;;;;5.00;4.60;;;18.70;97.00;;;;;;5092024;28;20163;-76
2023/04/23 09:30:11;;;;;;;4.80;4.50;;;18.70;97.10;;;;;;5091500;28;20715;-76
2023/04/23 09:32:39;;;;;;;4.93;4.43;;;18.70;96.80;;;;;;5091655;28;20177;-76
2023/04/23 09:35:11;;;;;;;4.27;4.03;;;18.80;96.60;;;;;;5091789;28;20650;-75
2023/04/23 09:37:47;;;;;;;5.10;4.70;;;18.80;96.70;;;;;;5091914;28;20211;-76
2023/04/23 09:40:14;;;;;;;4.23;3.80;;;18.80;97.00;;;;;;5092555;28;20170;-76
2023/04/23 09:42:45;;;;;;;3.90;3.70;;;18.90;96.90;;;;;;5094242;28;20170;-77
2023/04/23 09:45:12;;;;;;;4.50;4.10;;;19.00;96.50;;;;;;5091756;28;20222;-76
2023/04/23 09:47:59;;;;;;;4.40;4.10;;;19.00;96.10;;;;;;5073653;28;20545;-77
2023/04/23 09:50:37;;;;;;;4.20;3.80;;;19.10;96.10;;;;;;5091325;28;20229;-77
2023/04/23 09:53:03;;;;;;;3.87;3.57;;;19.20;95.80;;;;;;5096541;28;20194;-77
2023/04/23 09:55:34;;;;;;;4.30;4.00;;;19.40;95.80;;;;;;5095922;28;20175;-76
2023/04/23 09:58:01;;;;;;;4.03;3.73;;;19.40;95.20;;;;;;5077091;28;20183;-75
2023/04/23 10:00:33;;;;;;;3.93;3.67;;;19.60;95.10;;;;;;5077227;28;20209;-77
2023/04/23 10:02:59;;;;;;;3.90;3.60;;;19.60;95.10;;;;;;5095383;28;20246;-76
2023/04/23 10:05:25;;;;;;;3.50;3.30;;;19.60;95.10;;;;;;5095010;28;20548;-74
2023/04/23 10:07:51;;;;;;;3.70;3.50;;;19.60;94.30;;;;;;5094975;28;20179;-76
2023/04/23 10:10:18;;;;;;;3.77;3.57;;;19.60;94.20;;;;;;5095667;28;20169;-75
2023/04/23 10:12:45;;;;;;;3.87;3.57;;;19.60;95.30;;;;;;5095098;28;20186;-76
2023/04/23 10:15:13;;;;;;;3.63;3.43;;;19.70;95.20;;;;;;5095067;28;20178;-74
2023/04/23 10:17:39;;;;;;;4.00;3.53;;;19.80;95.10;;;;;;5094857;28;20178;-75
2023/04/23 10:20:07;;;;;;;3.93;3.63;;;19.80;95.30;;;;;;5094602;28;20221;-75
2023/04/23 10:22:34;;;;;;;3.97;3.67;;;19.80;95.10;;;;;;5094516;28;20167;-77
2023/04/23 10:25:07;;;;;;;4.23;3.83;;;19.80;95.40;;;;;;5094587;28;20206;-76
2023/04/23 10:27:38;;;;;;;4.47;4.07;;;19.80;95.70;;;;;;5076437;28;20265;-75
2023/04/23 10:30:09;;;;;;;10.87;7.67;;;19.90;95.50;;;;;;5076180;28;20545;-75
2023/04/23 10:32:37;;;;;;;4.90;4.50;;;20.00;95.70;;;;;;5076139;28;20175;-77
2023/04/23 10:35:03;;;;;;;4.30;4.00;;;20.20;95.30;;;;;;5076298;28;20190;-75
2023/04/23 10:37:29;;;;;;;9.10;7.30;;;20.20;95.40;;;;;;5094501;28;20258;-77
2023/04/23 10:40:03;;;;;;;4.50;4.10;;;20.30;95.20;;;;;;5094182;28;20189;-77
2023/04/23 10:42:29;;;;;;;3.30;3.10;;;20.40;94.80;;;;;;5094291;28;20169;-77
2023/04/23 10:44:58;;;;;;;3.40;3.10;;;20.50;93.90;;;;;;5072147;28;20222;-74
2023/04/23 10:47:23;;;;;;;3.20;3.00;;;20.50;93.60;;;;;;5093247;28;20191;-75
2023/04/23 10:49:50;;;;;;;4.37;3.97;;;20.50;92.90;;;;;;5094423;28;20189;-76
2023/04/23 10:52:17;;;;;;;3.53;3.33;;;20.60;92.60;;;;;;5094471;28;20179;-77
2023/04/23 10:54:49;;;;;;;2.93;2.73;;;20.70;92.20;;;;;;5094210;28;20626;-74
2023/04/23 10:57:16;;;;;;;3.83;3.53;;;20.80;91.60;;;;;;5094138;28;20280;-74
2023/04/23 10:59:53;;;;;;;2.83;2.70;;;20.90;92.00;;;;;;5093674;28;20185;-75
2023/04/23 11:02:19;;;;;;;3.43;3.17;;;20.90;91.70;;;;;;5075901;28;20162;-75
2023/04/23 11:04:47;;;;;;;3.00;2.80;;;21.10;91.60;;;;;;5093862;28;20197;-75
2023/04/23 11:07:13;;;;;;;2.93;2.83;;;21.20;91.10;;;;;;5093824;28;20263;-75
2023/04/23 11:09:45;;;;;;;3.00;2.90;;;21.30;91.50;;;;;;5093875;28;20224;-75
2023/04/23 11:12:12;;;;;;;3.10;2.90;;;21.30;91.70;;;;;;5076274;28;20967;-75
2023/04/23 11:14:44;;;;;;;3.20;2.90;;;21.50;91.80;;;;;;5093937;28;20192;-75
2023/04/23 11:17:12;;;;;;;3.13;2.83;;;21.60;91.20;;;;;;5093907;28;20534;-75
2023/04/23 11:19:39;;;;;;;4.10;3.70;;;21.50;91.00;;;;;;5075753;28;20179;-75
2023/04/23 11:22:12;;;;;;;3.43;3.23;;;21.70;91.30;;;;;;5093778;28;20181;-75
2023/04/23 11:24:43;;;;;;;3.10;2.87;;;21.60;91.50;;;;;;5094097;28;20187;-74
2023/04/23 11:27:10;;;;;;;2.90;2.80;;;21.80;91.60;;;;;;5093916;28;20167;-75
2023/04/23 11:29:38;;;;;;;3.57;3.37;;;22.10;91.40;;;;;;5093837;28;20199;-75
2023/04/23 11:32:09;;;;;;;4.23;3.23;;;22.40;91.30;;;;;;5093512;28;20540;-76
2023/04/23 11:34:44;;;;;;;2.83;2.73;;;22.60;91.60;;;;;;5094149;28;20166;-79
2023/04/23 11:37:11;;;;;;;3.40;3.20;;;22.60;90.70;;;;;;5094561;28;20170;-76
2023/04/23 11:39:39;;;;;;;3.73;3.53;;;22.60;91.30;;;;;;5075514;28;20235;-76
2023/04/23 11:42:09;;;;;;;3.45;3.25;;;22.60;91.50;;;;;;5093253;28;20176;-75
2023/04/23 11:44:38;;;;;;;3.47;3.27;;;22.60;90.30;;;;;;5092987;28;20590;-75
2023/04/23 11:47:07;;;;;;;3.10;2.90;;;22.50;90.50;;;;;;5093107;28;20739;-75
2023/04/23 11:49:33;;;;;;;4.20;3.80;;;22.60;90.60;;;;;;5093251;28;20261;-74
2023/04/23 11:52:02;;;;;;;3.60;3.40;;;22.60;90.10;;;;;;5076380;28;20218;-75
2023/04/23 11:54:28;;;;;;;3.60;3.30;;;22.60;90.10;;;;;;5093377;28;20192;-77
2023/04/23 11:56:55;;;;;;;4.17;3.77;;;22.60;90.20;;;;;;5093029;28;20171;-75
2023/04/23 11:59:22;;;;;;;3.73;3.37;;;22.50;90.10;;;;;;5092903;28;20313;-77
2023/04/23 12:01:55;;;;;;;3.25;3.08;;;22.50;90.30;;;;;;5093085;28;20175;-75
2023/04/23 12:04:23;;;;;;;5.40;3.50;;;22.60;90.70;;;;;;5092870;28;20166;-75
2023/04/23 12:06:50;;;;;;;4.13;3.73;;;22.70;90.70;;;;;;5087533;28;20210;-77
2023/04/23 12:09:18;;;;;;;3.83;3.60;;;22.90;90.90;;;;;;5092876;28;20277;-76
2023/04/23 12:11:45;;;;;;;3.33;3.13;;;23.00;90.10;;;;;;5093195;28;20170;-78
2023/04/23 12:14:12;;;;;;;3.05;2.85;;;23.10;90.10;;;;;;5074538;28;20174;-75
2023/04/23 12:16:40;;;;;;;3.30;3.10;;;23.20;89.50;;;;;;5092634;28;20185;-76
2023/04/23 12:19:13;;;;;;;3.63;3.33;;;23.20;89.30;;;;;;5092429;28;20224;-76
2023/04/23 12:21:58;;;;;;;3.03;2.85;;;23.20;90.30;;;;;;5092783;28;20232;-77
2023/04/23 12:24:25;;;;;;;3.45;3.22;;;23.10;89.00;;;;;;5092979;28;20638;-75
2023/04/23 12:27:01;;;;;;;3.28;3.08;;;23.20;89.90;;;;;;5092438;28;20618;-74
2023/04/23 12:29:30;;;;;;;3.42;3.22;;;23.20;89.30;;;;;;5092746;28;20572;-75
2023/04/23 12:31:58;;;;;;;3.20;3.00;;;23.10;88.80;;;;;;5092397;28;20163;-75
2023/04/23 12:34:24;;;;;;;3.75;3.00;;;22.90;88.50;;;;;;5092245;28;20243;-76
2023/04/23 12:36:51;;;;;;;3.28;3.08;;;23.00;90.00;;;;;;5092159;28;20236;-76
2023/04/23 12:39:37;;;;;;;3.58;3.38;;;23.00;89.20;;;;;;5073881;28;20179;-74
2023/04/23 12:42:05;;;;;;;3.72;3.38;;;22.90;89.70;;;;;;5091481;28;20549;-76
2023/04/23 12:44:35;;;;;;;3.25;3.05;;;22.90;88.70;;;;;;5092043;28;20638;-76
2023/04/23 12:47:03;;;;;;;3.58;3.15;;;22.90;89.50;;;;;;5074589;28;20370;-75